createdAt,value
2023-05-15T00:02:10.515Z,98.81
2023-05-15T00:04:41.955Z,100.00
2023-05-15T00:07:08.892Z,100.00
2023-05-15T00:09:38.082Z,100.00
2023-05-15T00:12:04.967Z,100.00
2023-05-15T00:14:33.728Z,100.00
2023-05-15T00:17:00.330Z,100.00
2023-05-15T00:19:29.226Z,100.00
2023-05-15T00:21:58.067Z,100.00
2023-05-15T00:24:24.672Z,100.00
2023-05-15T00:26:51.254Z,100.00
2023-05-15T00:29:17.875Z,100.00
2023-05-15T00:31:44.542Z,100.00
2023-05-15T00:34:13.651Z,99.20
2023-05-15T00:36:42.937Z,99.42
2023-05-15T00:39:09.623Z,99.17
2023-05-15T00:41:37.219Z,98.77
2023-05-15T00:44:04.133Z,99.35
2023-05-15T00:46:35.420Z,100.00
2023-05-15T00:49:05.328Z,100.00
2023-05-15T00:51:34.988Z,99.63
2023-05-15T00:54:02.709Z,98.79
2023-05-15T00:56:30.729Z,98.08
2023-05-15T00:58:59.812Z,97.34
2023-05-15T01:01:33.466Z,97.70
2023-05-15T01:04:02.279Z,98.84
2023-05-15T01:06:32.669Z,97.99
2023-05-15T01:09:06.949Z,97.97
2023-05-15T01:11:41.276Z,99.20
2023-05-15T01:14:08.826Z,98.69
2023-05-15T01:16:36.141Z,99.12
2023-05-15T01:19:06.663Z,98.72
2023-05-15T01:21:38.325Z,98.37
2023-05-15T01:24:26.219Z,99.37
2023-05-15T01:27:07.888Z,100.00
2023-05-15T01:29:56.226Z,99.75
2023-05-15T01:32:38.143Z,100.00
2023-05-15T01:35:36.080Z,100.00
2023-05-15T01:38:19.159Z,100.00
2023-05-15T01:40:49.442Z,100.00
2023-05-15T01:43:26.844Z,100.00
2023-05-15T01:45:54.735Z,100.00
2023-05-15T01:48:22.868Z,100.00
2023-05-15T01:50:51.883Z,100.00
2023-05-15T01:53:20.184Z,100.00
2023-05-15T01:55:48.870Z,100.00
2023-05-15T01:58:18.950Z,100.00
2023-05-15T02:00:48.804Z,100.00
2023-05-15T02:03:16.419Z,100.00
2023-05-15T02:05:43.368Z,100.00
2023-05-15T02:08:15.536Z,99.51
2023-05-15T02:10:43.136Z,99.62
2023-05-15T02:13:12.447Z,98.67
2023-05-15T02:15:39.301Z,98.46
2023-05-15T02:18:06.548Z,97.95
2023-05-15T02:20:35.804Z,97.64
2023-05-15T02:23:02.501Z,97.16
2023-05-15T02:25:40.754Z,96.95
2023-05-15T02:28:37.256Z,97.14
2023-05-15T02:31:18.873Z,97.42
2023-05-15T02:34:05.848Z,97.21
2023-05-15T02:36:37.046Z,97.02
2023-05-15T02:39:05.908Z,97.78
2023-05-15T02:41:40.071Z,95.78
2023-05-15T02:44:08.736Z,96.98
2023-05-15T02:46:37.398Z,97.16
2023-05-15T02:49:04.294Z,97.27
2023-05-15T02:51:33.254Z,97.08
2023-05-15T02:54:01.421Z,97.38
2023-05-15T02:56:30.552Z,97.50
2023-05-15T02:58:57.228Z,97.83
2023-05-15T03:01:23.846Z,97.93
2023-05-15T03:03:50.525Z,97.44
2023-05-15T03:06:19.421Z,97.22
2023-05-15T03:08:46.081Z,96.47
2023-05-15T03:11:12.747Z,95.48
2023-05-15T03:13:39.298Z,96.47
2023-05-15T03:16:06.271Z,97.12
2023-05-15T03:18:35.602Z,97.49
2023-05-15T03:21:02.233Z,98.40
2023-05-15T03:23:31.531Z,98.09
2023-05-15T03:26:00.547Z,97.11
2023-05-15T03:28:29.437Z,96.97
2023-05-15T03:30:58.469Z,95.95
2023-05-15T03:33:27.440Z,96.43
2023-05-15T03:35:56.308Z,96.82
2023-05-15T03:38:27.936Z,97.01
2023-05-15T03:40:56.734Z,97.23
2023-05-15T03:43:26.752Z,95.53
2023-05-15T03:45:55.922Z,96.17
2023-05-15T03:48:25.665Z,96.23
2023-05-15T03:50:57.163Z,95.24
2023-05-15T03:53:28.500Z,94.42
2023-05-15T03:55:57.899Z,94.74
2023-05-15T03:58:26.873Z,95.16
2023-05-15T04:00:55.942Z,94.92
2023-05-15T04:03:24.945Z,95.64
2023-05-15T04:05:52.161Z,95.35
2023-05-15T04:08:18.771Z,96.64
2023-05-15T04:10:50.307Z,98.63
2023-05-15T04:13:16.899Z,99.84
2023-05-15T04:15:46.656Z,99.40
2023-05-15T04:18:16.300Z,98.44
2023-05-15T04:20:43.001Z,97.72
2023-05-15T04:23:09.970Z,97.52
2023-05-15T04:25:43.186Z,96.56
2023-05-15T04:28:09.774Z,96.41
2023-05-15T04:30:36.646Z,95.77
2023-05-15T04:33:06.117Z,95.42
2023-05-15T04:35:33.002Z,95.56
2023-05-15T04:37:59.717Z,95.63
2023-05-15T04:40:26.398Z,95.77
2023-05-15T04:42:55.265Z,95.85
2023-05-15T04:45:24.598Z,94.88
2023-05-15T04:47:53.873Z,94.76
2023-05-15T04:50:23.223Z,94.48
2023-05-15T04:52:52.457Z,94.33
2023-05-15T04:55:19.061Z,94.11
2023-05-15T04:57:49.571Z,94.37
2023-05-15T05:00:16.586Z,94.39
2023-05-15T05:02:44.317Z,95.48
2023-05-15T05:05:16.994Z,95.58
2023-05-15T05:07:46.173Z,96.34
2023-05-15T05:10:15.487Z,96.04
2023-05-15T05:12:42.090Z,95.95
2023-05-15T05:15:09.611Z,95.04
2023-05-15T05:17:44.135Z,94.80
2023-05-15T05:20:13.540Z,94.67
2023-05-15T05:22:41.241Z,96.35
2023-05-15T05:25:08.254Z,96.55
2023-05-15T05:27:34.926Z,97.11
2023-05-15T05:30:04.227Z,97.61
2023-05-15T05:32:31.002Z,96.98
2023-05-15T05:34:59.936Z,98.09
2023-05-15T05:37:28.766Z,98.40
2023-05-15T05:39:55.739Z,98.65
2023-05-15T05:42:22.366Z,99.53
2023-05-15T05:44:48.967Z,98.61
2023-05-15T05:47:16.132Z,97.94
2023-05-15T05:49:48.241Z,97.76
2023-05-15T05:52:17.441Z,96.88
2023-05-15T05:54:46.535Z,98.35
2023-05-15T05:57:15.634Z,97.55
2023-05-15T05:59:45.972Z,97.15
2023-05-15T06:02:15.434Z,98.00
2023-05-15T06:04:44.439Z,97.22
2023-05-15T06:07:10.969Z,96.49
2023-05-15T06:09:39.994Z,95.31
2023-05-15T06:12:08.355Z,94.22
2023-05-15T06:14:36.151Z,94.39
2023-05-15T06:17:05.304Z,96.08
2023-05-15T06:19:32.610Z,96.00
2023-05-15T06:21:59.230Z,95.33
2023-05-15T06:24:27.990Z,95.63
2023-05-15T06:26:56.998Z,94.85
2023-05-15T06:29:25.946Z,95.12
2023-05-15T06:31:57.876Z,95.21
2023-05-15T06:34:24.615Z,95.10
2023-05-15T06:36:51.206Z,96.61
2023-05-15T06:39:20.211Z,96.91
2023-05-15T06:41:46.791Z,93.07
2023-05-15T06:44:13.370Z,92.90
2023-05-15T06:46:39.970Z,93.98
2023-05-15T06:49:09.060Z,90.11
2023-05-15T06:51:40.058Z,92.03
2023-05-15T06:54:06.881Z,91.36
2023-05-15T06:56:33.507Z,93.77
2023-05-15T06:59:00.131Z,93.03
2023-05-15T07:01:32.477Z,92.44
2023-05-15T07:03:59.189Z,92.87
2023-05-15T07:06:32.065Z,92.47
2023-05-15T07:09:01.913Z,89.58
2023-05-15T07:11:29.401Z,91.89
2023-05-15T07:13:58.400Z,91.36
2023-05-15T07:16:25.091Z,91.58
2023-05-15T07:18:54.046Z,91.24
2023-05-15T07:21:20.605Z,88.76
2023-05-15T07:23:49.539Z,88.40
2023-05-15T07:26:23.776Z,88.14
2023-05-15T07:29:00.485Z,89.31
2023-05-15T07:31:26.970Z,90.71
2023-05-15T07:33:53.606Z,90.27
2023-05-15T07:36:20.277Z,90.96
2023-05-15T07:38:46.974Z,89.18
2023-05-15T07:41:16.381Z,87.72
2023-05-15T07:43:42.975Z,84.15
2023-05-15T07:46:11.988Z,87.27
2023-05-15T07:48:38.861Z,89.85
2023-05-15T07:51:08.164Z,91.17
2023-05-15T07:53:37.230Z,90.91
2023-05-15T07:56:04.068Z,90.56
2023-05-15T07:58:30.677Z,92.70
2023-05-15T08:00:59.724Z,87.47
2023-05-15T08:03:26.509Z,89.16
2023-05-15T08:05:53.197Z,85.52
2023-05-15T08:08:19.780Z,89.79
2023-05-15T08:10:48.886Z,89.54
2023-05-15T08:13:17.761Z,90.97
2023-05-15T08:15:44.467Z,88.08
2023-05-15T08:18:13.316Z,87.92
2023-05-15T08:20:39.942Z,87.04
2023-05-15T08:23:08.819Z,85.93
2023-05-15T08:25:35.501Z,88.94
2023-05-15T08:28:05.200Z,89.48
2023-05-15T08:30:34.305Z,88.37
2023-05-15T08:33:03.460Z,90.42
2023-05-15T08:35:34.970Z,86.35
2023-05-15T08:38:01.764Z,86.52
2023-05-15T08:44:20.445Z,85.33
2023-05-15T08:46:49.991Z,86.29
2023-05-15T08:49:27.484Z,83.43
2023-05-15T08:51:55.631Z,82.68
2023-05-15T08:54:23.028Z,80.05
2023-05-15T08:56:49.901Z,79.56
2023-05-15T08:59:24.901Z,77.76
2023-05-15T09:01:54.376Z,78.68
2023-05-15T09:04:24.007Z,79.36
2023-05-15T09:06:51.611Z,79.44
2023-05-15T09:09:20.656Z,78.58
2023-05-15T09:11:51.860Z,81.62
2023-05-15T09:14:18.981Z,78.51
2023-05-15T09:16:49.544Z,78.55
2023-05-15T09:19:20.303Z,76.89
2023-05-15T09:21:49.799Z,77.93
2023-05-15T09:24:24.973Z,77.90
2023-05-15T09:27:07.377Z,74.74
2023-05-15T09:29:38.093Z,75.04
2023-05-15T09:32:06.442Z,78.76
2023-05-15T09:34:40.519Z,77.81
2023-05-15T09:37:09.696Z,76.66
2023-05-15T09:39:46.386Z,78.37
2023-05-15T09:42:14.830Z,75.95
2023-05-15T09:44:46.054Z,76.90
2023-05-15T09:47:14.321Z,73.66
2023-05-15T09:49:44.333Z,74.36
2023-05-15T09:52:11.111Z,73.23
2023-05-15T09:54:37.921Z,74.95
2023-05-15T09:57:14.274Z,75.37
2023-05-15T09:59:52.557Z,73.83
2023-05-15T10:02:36.375Z,78.03
2023-05-15T10:05:03.055Z,75.53
2023-05-15T10:07:36.167Z,70.66
2023-05-15T10:10:04.520Z,71.67
2023-05-15T10:12:40.108Z,70.67
2023-05-15T10:15:09.558Z,69.72
2023-05-15T10:17:39.895Z,71.34
2023-05-15T10:20:11.383Z,73.05
2023-05-15T10:22:46.161Z,71.85
2023-05-15T10:25:30.735Z,72.90
2023-05-15T10:27:58.464Z,67.40
2023-05-15T10:30:26.632Z,70.18
2023-05-15T10:32:54.056Z,67.75
2023-05-15T10:35:27.498Z,69.60
2023-05-15T10:37:54.711Z,65.84
2023-05-15T10:40:23.372Z,66.99
2023-05-15T10:42:50.473Z,67.54
2023-05-15T10:45:17.284Z,66.40
2023-05-15T10:47:45.522Z,70.00
2023-05-15T10:50:15.248Z,66.89
2023-05-15T10:52:42.191Z,67.88
2023-05-15T10:55:20.987Z,68.75
2023-05-15T10:57:47.826Z,69.57
2023-05-15T11:00:26.159Z,66.51
2023-05-15T11:02:55.381Z,69.16
2023-05-15T11:05:27.071Z,67.44
2023-05-15T11:08:28.645Z,66.38
2023-05-15T11:10:55.474Z,67.47
2023-05-15T11:13:22.074Z,65.80
2023-05-15T11:15:51.055Z,63.80
2023-05-15T11:18:17.889Z,64.40
2023-05-15T11:20:51.935Z,66.18
2023-05-15T11:23:27.606Z,66.87
2023-05-15T11:25:57.036Z,67.23
2023-05-15T11:28:25.900Z,67.07
2023-05-15T11:30:53.036Z,64.47
2023-05-15T11:33:24.442Z,64.71
2023-05-15T11:35:59.262Z,63.33
2023-05-15T11:38:28.878Z,66.35
2023-05-15T11:40:58.603Z,67.03
2023-05-15T11:43:48.689Z,64.62
2023-05-15T11:46:15.537Z,65.96
2023-05-15T11:48:44.405Z,64.51
2023-05-15T11:51:31.757Z,64.38
2023-05-15T11:53:58.982Z,67.50
2023-05-15T11:56:29.995Z,68.33
2023-05-15T11:59:01.323Z,68.44
2023-05-15T12:01:41.730Z,65.28
2023-05-15T12:04:15.655Z,67.79
2023-05-15T12:06:49.555Z,66.52
2023-05-15T12:09:19.480Z,64.49
2023-05-15T12:11:51.992Z,64.25
2023-05-15T12:14:28.975Z,64.33
2023-05-15T12:17:04.021Z,66.06
2023-05-15T12:19:31.135Z,64.50
2023-05-15T12:21:57.730Z,66.07
2023-05-15T12:24:26.733Z,66.34
2023-05-15T12:26:55.950Z,64.86
2023-05-15T12:29:29.360Z,64.37
2023-05-15T12:31:56.141Z,66.91
2023-05-15T12:34:22.882Z,65.61
2023-05-15T12:36:49.427Z,64.18
2023-05-15T12:39:18.253Z,63.69
2023-05-15T12:41:46.716Z,64.07
2023-05-15T12:44:22.239Z,66.61
2023-05-15T12:46:48.768Z,63.95
2023-05-15T12:49:21.493Z,63.45
2023-05-15T12:51:48.074Z,62.82
2023-05-15T12:54:20.975Z,65.83
2023-05-15T12:56:52.934Z,61.81
2023-05-15T12:59:19.637Z,62.66
2023-05-15T13:01:48.669Z,62.86
2023-05-15T13:04:18.459Z,60.09
2023-05-15T13:06:47.772Z,63.97
2023-05-15T13:09:14.846Z,60.95
2023-05-15T13:11:45.198Z,62.05
2023-05-15T13:14:17.190Z,60.66
2023-05-15T13:16:48.246Z,59.12
2023-05-15T13:19:15.928Z,60.87
2023-05-15T13:21:43.323Z,59.54
2023-05-15T13:24:12.469Z,59.45
2023-05-15T13:26:41.633Z,60.14
2023-05-15T13:29:10.962Z,61.01
2023-05-15T13:31:39.826Z,60.71
2023-05-15T13:34:06.521Z,61.67
2023-05-15T13:36:33.120Z,61.70
2023-05-15T13:38:59.649Z,63.39
2023-05-15T13:41:28.579Z,62.92
2023-05-15T13:43:59.948Z,63.34
2023-05-15T13:46:26.543Z,63.11
2023-05-15T13:48:55.543Z,59.50
2023-05-15T13:51:22.139Z,61.85
2023-05-15T13:53:48.706Z,62.58
2023-05-15T13:56:15.318Z,60.94
2023-05-15T13:58:42.550Z,60.34
2023-05-15T14:01:12.105Z,61.54
2023-05-15T14:03:38.879Z,64.62
2023-05-15T14:06:08.505Z,62.44
2023-05-15T14:08:35.057Z,63.79
2023-05-15T14:11:01.798Z,65.52
2023-05-15T14:13:31.702Z,62.70
2023-05-15T14:16:03.224Z,62.06
2023-05-15T14:18:32.296Z,61.50
2023-05-15T14:21:01.176Z,62.12
2023-05-15T14:23:30.803Z,64.21
2023-05-15T14:25:57.370Z,62.41
2023-05-15T14:28:23.930Z,66.55
2023-05-15T14:30:50.503Z,65.07
2023-05-15T14:33:20.040Z,67.37
2023-05-15T14:35:51.406Z,68.55
2023-05-15T14:38:18.010Z,67.89
2023-05-15T14:40:46.669Z,68.66
2023-05-15T14:43:13.210Z,69.31
2023-05-15T14:45:39.886Z,71.37
2023-05-15T14:48:09.628Z,71.94
2023-05-15T14:50:36.203Z,73.13
2023-05-15T14:53:02.806Z,74.06
2023-05-15T14:55:29.403Z,76.07
2023-05-15T14:57:58.129Z,77.50
2023-05-15T15:00:24.842Z,77.15
2023-05-15T15:02:54.666Z,76.54
2023-05-15T15:05:21.781Z,76.19
2023-05-15T15:08:04.914Z,76.66
2023-05-15T15:10:39.033Z,74.64
2023-05-15T15:13:10.151Z,75.96
2023-05-15T15:15:40.137Z,75.96
2023-05-15T15:18:07.813Z,76.11
2023-05-15T15:20:34.712Z,76.08
2023-05-15T15:23:04.921Z,74.89
2023-05-15T15:25:35.590Z,75.72
2023-05-15T15:28:02.858Z,74.31
2023-05-15T15:30:29.604Z,74.73
2023-05-15T15:32:59.147Z,75.04
2023-05-15T15:35:25.840Z,73.91
2023-05-15T15:37:53.170Z,73.93
2023-05-15T15:40:23.965Z,74.63
2023-05-15T15:42:50.931Z,74.58
2023-05-15T15:45:19.791Z,73.34
2023-05-15T15:47:46.273Z,72.23
2023-05-15T15:50:15.942Z,73.46
2023-05-15T15:52:44.920Z,73.96
2023-05-15T15:55:13.969Z,74.13
2023-05-15T15:57:42.758Z,72.56
2023-05-15T16:00:10.343Z,72.42
2023-05-15T16:02:37.047Z,72.82
2023-05-15T16:05:07.230Z,73.39
2023-05-15T16:07:36.514Z,72.97
2023-05-15T16:10:12.348Z,70.89
2023-05-15T16:12:57.511Z,70.98
2023-05-15T16:15:26.663Z,71.24
2023-05-15T16:17:54.329Z,71.33
2023-05-15T16:20:21.977Z,72.68
2023-05-15T16:22:48.594Z,72.75
2023-05-15T16:25:15.274Z,71.14
2023-05-15T16:27:41.854Z,71.07
2023-05-15T16:30:09.999Z,71.45
2023-05-15T16:32:41.996Z,73.03
2023-05-15T16:35:13.593Z,73.56
2023-05-15T16:37:50.406Z,74.05
2023-05-15T16:40:27.384Z,71.43
2023-05-15T16:42:54.155Z,72.30
2023-05-15T16:45:20.776Z,73.58
2023-05-15T16:47:49.656Z,73.91
2023-05-15T16:50:16.198Z,74.09
2023-05-15T16:52:45.964Z,73.63
2023-05-15T16:55:17.588Z,73.57
2023-05-15T16:57:47.396Z,74.04
2023-05-15T17:00:17.375Z,75.12
2023-05-15T17:02:56.322Z,74.29
2023-05-15T17:05:23.016Z,74.86
2023-05-15T17:07:49.592Z,73.11
2023-05-15T17:10:29.815Z,69.11
2023-05-15T17:12:56.639Z,69.92
2023-05-15T17:15:23.650Z,71.07
2023-05-15T17:17:50.424Z,72.50
2023-05-15T17:20:17.138Z,73.07
2023-05-15T17:22:43.811Z,70.68
2023-05-15T17:25:11.257Z,72.41
2023-05-15T17:27:42.747Z,72.21
2023-05-15T17:30:12.152Z,73.39
2023-05-15T17:32:39.464Z,73.67
2023-05-15T17:35:08.762Z,72.35
2023-05-15T17:37:35.332Z,69.00
2023-05-15T17:40:08.149Z,69.63
2023-05-15T17:42:37.141Z,68.13
2023-05-15T17:45:04.406Z,71.23
2023-05-15T17:47:38.766Z,72.25
2023-05-15T17:50:10.707Z,71.85
2023-05-15T17:52:43.984Z,72.10
2023-05-15T17:55:18.229Z,72.02
2023-05-15T18:01:45.171Z,71.51
2023-05-15T18:04:11.826Z,71.05
2023-05-15T18:06:40.938Z,71.94
2023-05-15T18:09:07.840Z,68.73
2023-05-15T18:11:34.497Z,70.09
2023-05-15T18:14:01.117Z,70.41
2023-05-15T18:16:32.935Z,70.75
2023-05-15T18:19:00.255Z,69.57
2023-05-15T18:21:29.374Z,70.36
2023-05-15T18:23:56.091Z,70.51
2023-05-15T18:26:25.878Z,69.65
2023-05-15T18:28:52.890Z,70.06
2023-05-15T18:31:19.603Z,69.44
2023-05-15T18:33:46.827Z,69.32
2023-05-15T18:36:16.046Z,68.41
2023-05-15T18:38:42.766Z,69.07
2023-05-15T18:41:09.353Z,69.74
2023-05-15T18:43:38.406Z,69.24
2023-05-15T18:46:05.758Z,71.07
2023-05-15T18:48:34.696Z,72.17
2023-05-15T18:51:03.279Z,73.10
2023-05-15T18:53:29.862Z,72.52
2023-05-15T18:55:56.385Z,71.43
2023-05-15T18:58:25.193Z,71.50
2023-05-15T19:00:51.807Z,72.02
2023-05-15T19:03:21.175Z,72.36
2023-05-15T19:05:50.188Z,73.27
2023-05-15T19:08:16.631Z,73.98
2023-05-15T19:10:50.777Z,74.71
2023-05-15T19:13:20.224Z,74.97
2023-05-15T19:15:54.252Z,74.03
2023-05-15T19:18:21.840Z,75.24
2023-05-15T19:20:52.044Z,74.88
2023-05-15T19:23:20.568Z,74.81
2023-05-15T19:25:47.259Z,76.06
2023-05-15T19:28:14.933Z,75.38
2023-05-15T19:30:44.514Z,76.28
2023-05-15T19:33:14.067Z,76.16
2023-05-15T19:35:43.199Z,77.07
2023-05-15T19:38:14.223Z,77.84
2023-05-15T19:40:45.789Z,78.03
2023-05-15T19:43:14.246Z,77.04
2023-05-15T19:45:41.949Z,77.77
2023-05-15T19:48:09.452Z,78.46
2023-05-15T19:50:41.665Z,76.90
2023-05-15T19:53:08.495Z,77.51
2023-05-15T19:55:37.515Z,78.56
2023-05-15T19:58:04.202Z,76.35
2023-05-15T20:00:31.489Z,74.66
2023-05-15T20:03:03.145Z,76.26
2023-05-15T20:05:32.261Z,75.90
2023-05-15T20:08:03.571Z,75.97
2023-05-15T20:10:35.247Z,75.46
2023-05-15T20:13:01.991Z,75.23
2023-05-15T20:15:35.089Z,74.73
2023-05-15T20:18:01.951Z,73.98
2023-05-15T20:20:29.306Z,76.16
2023-05-15T20:22:58.573Z,75.59
2023-05-15T20:25:29.179Z,74.10
2023-05-15T20:27:58.608Z,73.31
2023-05-15T20:30:25.494Z,73.90
2023-05-15T20:32:55.029Z,74.43
2023-05-15T20:35:23.989Z,74.83
2023-05-15T20:37:53.631Z,74.99
2023-05-15T20:40:23.644Z,75.74
2023-05-15T20:42:50.942Z,76.61
2023-05-15T20:45:20.269Z,76.67
2023-05-15T20:47:54.310Z,77.09
2023-05-15T20:50:20.955Z,78.31
2023-05-15T20:52:49.891Z,78.08
2023-05-15T20:55:17.227Z,78.35
2023-05-15T20:57:48.185Z,78.39
2023-05-15T21:00:16.948Z,78.52
2023-05-15T21:02:45.301Z,78.61
2023-05-15T21:05:12.223Z,77.96
2023-05-15T21:07:41.573Z,78.38
2023-05-15T21:10:08.978Z,78.73
2023-05-15T21:12:35.737Z,77.91
2023-05-15T21:15:06.242Z,78.51
2023-05-15T21:17:33.005Z,77.72
2023-05-15T21:20:01.160Z,78.10
2023-05-15T21:22:30.009Z,76.91
2023-05-15T21:24:56.617Z,77.58
2023-05-15T21:27:23.451Z,78.05
2023-05-15T21:29:53.726Z,78.10
2023-05-15T21:32:25.129Z,78.75
2023-05-15T21:34:53.944Z,78.89
2023-05-15T21:37:20.611Z,79.22
2023-05-15T21:39:49.418Z,79.56
2023-05-15T21:42:16.039Z,79.41
2023-05-15T21:44:44.978Z,78.76
2023-05-15T21:47:11.403Z,78.90
2023-05-15T21:49:43.399Z,79.33
2023-05-15T21:52:09.969Z,79.66
2023-05-15T21:54:38.888Z,79.48
2023-05-15T21:57:05.730Z,79.81
2023-05-15T21:59:37.065Z,80.51
2023-05-15T22:02:09.200Z,82.02
2023-05-15T22:04:35.978Z,82.13
2023-05-15T22:07:07.517Z,81.97
2023-05-15T22:09:36.432Z,81.67
2023-05-15T22:12:05.623Z,80.44
2023-05-15T22:14:35.112Z,78.59
2023-05-15T22:17:06.871Z,79.26
2023-05-15T22:19:34.218Z,79.97
2023-05-15T22:22:02.275Z,79.98
2023-05-15T22:24:33.969Z,81.49
2023-05-15T22:27:03.097Z,81.63
2023-05-15T22:29:31.869Z,81.33
2023-05-15T22:31:58.452Z,80.92
2023-05-15T22:34:29.006Z,80.61
2023-05-15T22:36:56.738Z,80.88
2023-05-15T22:39:25.623Z,81.25
2023-05-15T22:41:52.322Z,80.78
2023-05-15T22:44:18.910Z,80.82
2023-05-15T22:46:46.312Z,81.80
2023-05-15T22:49:19.297Z,80.79
2023-05-15T22:51:46.578Z,80.53
2023-05-15T22:54:15.626Z,79.30
2023-05-15T22:56:43.129Z,78.93
2023-05-15T22:59:10.536Z,80.69
2023-05-15T23:01:39.781Z,81.59
2023-05-15T23:04:09.035Z,83.47
2023-05-15T23:06:35.782Z,82.77
2023-05-15T23:09:02.456Z,81.96
2023-05-15T23:11:29.022Z,82.33
2023-05-15T23:13:58.428Z,81.98
2023-05-15T23:16:25.739Z,81.71
2023-05-15T23:18:56.573Z,81.12
2023-05-15T23:21:25.549Z,80.88
2023-05-15T23:23:54.569Z,80.89
2023-05-15T23:26:23.474Z,80.94
2023-05-15T23:28:50.605Z,80.83
2023-05-15T23:31:17.561Z,81.57
2023-05-15T23:33:44.271Z,81.76
2023-05-15T23:36:10.930Z,82.30
2023-05-15T23:38:37.555Z,82.99
2023-05-15T23:41:04.261Z,81.90
2023-05-15T23:43:32.212Z,82.44
2023-05-15T23:46:03.726Z,82.83
2023-05-15T23:48:33.653Z,82.62
2023-05-15T23:51:00.476Z,81.77
2023-05-15T23:53:27.026Z,81.95
2023-05-15T23:55:58.149Z,82.06
2023-05-15T23:58:27.233Z,82.92
